sensor_id;sensor_type;location;lat;lon;timestamp;pressure;altitude;pressure_sealevel;temperature;humidity
32759;BME280;19125;52.360;9.974;2023-08-21T00:01:20;85435.25;;;-145.17;55.58
32759;BME280;19125;52.360;9.974;2023-08-21T00:03:46;85401.53;;;-145.17;55.66
32759;BME280;19125;52.360;9.974;2023-08-21T00:06:11;85472.94;;;-145.17;55.57
32759;BME280;19125;52.360;9.974;2023-08-21T00:08:36;85470.97;;;-145.17;55.87
32759;BME280;19125;52.360;9.974;2023-08-21T00:11:02;85500.72;;;-145.17;55.95
32759;BME280;19125;52.360;9.974;2023-08-21T00:13:27;85552.31;;;-145.17;56.07
32759;BME280;19125;52.360;9.974;2023-08-21T00:15:53;85603.88;;;-145.17;56.19
32759;BME280;19125;52.360;9.974;2023-08-21T00:18:20;85617.78;;;-145.17;56.31
32759;BME280;19125;52.360;9.974;2023-08-21T00:20:45;85671.34;;;-145.17;56.37
32759;BME280;19125;52.360;9.974;2023-08-21T00:23:11;85796.34;;;-145.17;56.58
32759;BME280;19125;52.360;9.974;2023-08-21T00:25:36;85867.78;;;-145.17;56.90
32759;BME280;19125;52.360;9.974;2023-08-21T00:28:01;85937.22;;;-145.17;57.24
32759;BME280;19125;52.360;9.974;2023-08-21T00:30:27;85963.03;;;-145.17;57.31
32759;BME280;19125;52.360;9.974;2023-08-21T00:32:52;86012.63;;;-145.17;57.56
32759;BME280;19125;52.360;9.974;2023-08-21T00:35:18;86088.03;;;-145.17;57.77
32759;BME280;19125;52.360;9.974;2023-08-21T00:37:43;86107.88;;;-145.17;58.11
32759;BME280;19125;52.360;9.974;2023-08-21T00:40:09;86097.97;;;-145.17;58.33
32759;BME280;19125;52.360;9.974;2023-08-21T00:42:34;86169.41;;;-145.17;58.12
32759;BME280;19125;52.360;9.974;2023-08-21T00:45:00;86189.25;;;-145.17;58.47
32759;BME280;19125;52.360;9.974;2023-08-21T00:47:25;86175.34;;;-145.17;58.63
32759;BME280;19125;52.360;9.974;2023-08-21T00:49:51;86185.28;;;-145.17;58.71
32759;BME280;19125;52.360;9.974;2023-08-21T00:52:17;86163.44;;;-145.17;59.03
32759;BME280;19125;52.360;9.974;2023-08-21T00:54:43;86207.09;;;-145.17;59.03
32759;BME280;19125;52.360;9.974;2023-08-21T00:57:09;86165.44;;;-145.17;59.09
32759;BME280;19125;52.360;9.974;2023-08-21T00:59:36;86215.03;;;-145.17;59.44
32759;BME280;19125;52.360;9.974;2023-08-21T01:02:02;86193.22;;;-145.17;59.13
32759;BME280;19125;52.360;9.974;2023-08-21T01:04:27;86207.09;;;-145.17;59.56
32759;BME280;19125;52.360;9.974;2023-08-21T01:06:53;86163.44;;;-145.17;59.52
32759;BME280;19125;52.360;9.974;2023-08-21T01:09:27;86183.28;;;-145.17;59.70
32759;BME280;19125;52.360;9.974;2023-08-21T01:12:09;86187.25;;;-145.17;59.62
32759;BME280;19125;52.360;9.974;2023-08-21T01:15:00;86159.47;;;-145.17;59.67
32759;BME280;19125;52.360;9.974;2023-08-21T01:17:28;86159.47;;;-145.17;59.82
32759;BME280;19125;52.360;9.974;2023-08-21T01:19:55;86193.22;;;-145.17;59.61
32759;BME280;19125;52.360;9.974;2023-08-21T01:22:26;86215.03;;;-145.17;59.88
32759;BME280;19125;52.360;9.974;2023-08-21T01:24:52;86201.16;;;-145.17;59.85
32759;BME280;19125;52.360;9.974;2023-08-21T01:27:17;86230.91;;;-145.17;59.97
32759;BME280;19125;52.360;9.974;2023-08-21T01:29:46;86191.22;;;-145.17;60.30
32759;BME280;19125;52.360;9.974;2023-08-21T01:32:25;86167.41;;;-145.17;60.49
32759;BME280;19125;52.360;9.974;2023-08-21T01:34:54;86113.84;;;-145.17;60.94
32759;BME280;19125;52.360;9.974;2023-08-21T01:37:21;86050.34;;;-145.17;60.94
32759;BME280;19125;52.360;9.974;2023-08-21T01:39:46;85915.41;;;-145.17;61.24
32759;BME280;19125;52.360;9.974;2023-08-21T01:42:12;85810.25;;;-145.17;61.28
32759;BME280;19125;52.360;9.974;2023-08-21T01:44:37;85691.19;;;-145.17;61.36
32759;BME280;19125;52.360;9.974;2023-08-21T01:47:03;85599.94;;;-145.17;61.61
32759;BME280;19125;52.360;9.974;2023-08-21T01:49:28;85540.41;;;-145.17;61.77
32759;BME280;19125;52.360;9.974;2023-08-21T01:51:53;85429.28;;;-145.17;61.68
32759;BME280;19125;52.360;9.974;2023-08-21T01:54:19;85445.16;;;-145.17;61.63
32759;BME280;19125;52.360;9.974;2023-08-21T01:56:44;85318.19;;;-145.17;61.70
32759;BME280;19125;52.360;9.974;2023-08-21T01:59:09;85179.31;;;-145.17;61.79
32759;BME280;19125;52.360;9.974;2023-08-21T02:01:35;85092.03;;;-145.17;62.01
32759;BME280;19125;52.360;9.974;2023-08-21T02:04:00;85026.56;;;-145.17;61.94
32759;BME280;19125;52.360;9.974;2023-08-21T02:06:26;84959.13;;;-145.17;62.00
32759;BME280;19125;52.360;9.974;2023-08-21T02:08:51;84933.31;;;-145.17;62.10
32759;BME280;19125;52.360;9.974;2023-08-21T02:11:17;84842.06;;;-145.17;61.92
32759;BME280;19125;52.360;9.974;2023-08-21T02:13:42;84808.34;;;-145.17;62.14
32759;BME280;19125;52.360;9.974;2023-08-21T02:16:08;84685.38;;;-145.17;61.99
32759;BME280;19125;52.360;9.974;2023-08-21T02:18:33;84617.91;;;-145.17;62.23
32759;BME280;19125;52.360;9.974;2023-08-21T02:21:01;84362.03;;;-145.17;62.31
32759;BME280;19125;52.360;9.974;2023-08-21T02:23:26;84028.84;;;-145.17;62.35
32759;BME280;19125;52.360;9.974;2023-08-21T02:25:52;83749.19;;;-145.17;62.59
32759;BME280;19125;52.360;9.974;2023-08-21T02:28:17;83396.19;;;-145.17;62.54
32759;BME280;19125;52.360;9.974;2023-08-21T02:30:43;83239.53;;;-145.17;62.57
32759;BME280;19125;52.360;9.974;2023-08-21T02:33:09;82956.00;;;-145.17;62.63
32759;BME280;19125;52.360;9.974;2023-08-21T02:35:34;82775.56;;;-145.17;62.41
32759;BME280;19125;52.360;9.974;2023-08-21T02:37:59;82603.06;;;-145.17;62.68
32759;BME280;19125;52.360;9.974;2023-08-21T02:40:25;82323.53;;;-145.17;62.59
32759;BME280;19125;52.360;9.974;2023-08-21T02:42:50;82034.09;;;-145.17;62.93
32759;BME280;19125;52.360;9.974;2023-08-21T02:45:16;81855.69;;;-145.17;62.70
32759;BME280;19125;52.360;9.974;2023-08-21T02:47:42;81542.53;;;-145.17;62.86
32759;BME280;19125;52.360;9.974;2023-08-21T02:50:08;81233.31;;;-145.17;63.23
32759;BME280;19125;52.360;9.974;2023-08-21T02:52:35;80918.22;;;-145.17;63.03
32759;BME280;19125;52.360;9.974;2023-08-21T02:55:01;80212.75;;;-145.17;63.16
32759;BME280;19125;52.360;9.974;2023-08-21T02:57:27;79650.06;;;-145.17;63.19
32759;BME280;19125;52.360;9.974;2023-08-21T02:59:52;78998.31;;;-145.17;63.14
32759;BME280;19125;52.360;9.974;2023-08-21T03:02:18;78544.72;;;-145.17;63.25
32759;BME280;19125;52.360;9.974;2023-08-21T03:04:43;78487.31;;;-145.17;63.43
32759;BME280;19125;52.360;9.974;2023-08-21T03:07:09;78517.00;;;-145.17;63.37
32759;BME280;19125;52.360;9.974;2023-08-21T03:09:35;78285.28;;;-145.17;63.12
32759;BME280;19125;52.360;9.974;2023-08-21T03:12:01;78780.44;;;-145.17;63.09
32759;BME280;19125;52.360;9.974;2023-08-21T03:14:27;79436.09;;;-145.17;63.01
32759;BME280;19125;52.360;9.974;2023-08-21T03:16:52;79921.50;;;-145.17;62.98
32759;BME280;19125;52.360;9.974;2023-08-21T03:19:17;80026.50;;;-145.17;63.29
32759;BME280;19125;52.360;9.974;2023-08-21T03:21:43;80218.69;;;-145.17;63.14
32759;BME280;19125;52.360;9.974;2023-08-21T03:24:08;80680.41;;;-145.17;62.79
32759;BME280;19125;52.360;9.974;2023-08-21T03:26:33;80924.16;;;-145.17;63.33
32759;BME280;19125;52.360;9.974;2023-08-21T03:28:59;81124.31;;;-145.17;63.06
32759;BME280;19125;52.360;9.974;2023-08-21T03:31:24;81108.47;;;-145.17;63.04
32759;BME280;19125;52.360;9.974;2023-08-21T03:33:49;80777.50;;;-145.17;63.10
32759;BME280;19125;52.360;9.974;2023-08-21T03:36:15;80163.22;;;-145.17;63.29
32759;BME280;19125;52.360;9.974;2023-08-21T03:38:40;79194.44;;;-145.17;63.53
32759;BME280;19125;52.360;9.974;2023-08-21T03:41:06;78598.22;;;-145.17;63.39
32759;BME280;19125;52.360;9.974;2023-08-21T03:43:32;77899.09;;;-145.17;63.55
32759;BME280;19125;52.360;9.974;2023-08-21T03:45:57;77598.13;;;-145.17;63.75
32759;BME280;19125;52.360;9.974;2023-08-21T03:48:23;77758.50;;;-145.17;63.49
32759;BME280;19125;52.360;9.974;2023-08-21T03:50:49;77926.84;;;-145.17;63.49
32759;BME280;19125;52.360;9.974;2023-08-21T03:53:15;78111.00;;;-145.17;63.67
32759;BME280;19125;52.360;9.974;2023-08-21T03:55:40;77964.47;;;-145.17;63.34
32759;BME280;19125;52.360;9.974;2023-08-21T03:58:06;77732.75;;;-145.17;63.55
32759;BME280;19125;52.360;9.974;2023-08-21T04:00:31;77316.94;;;-145.17;63.49
32759;BME280;19125;52.360;9.974;2023-08-21T04:02:57;77087.28;;;-145.17;63.40
32759;BME280;19125;52.360;9.974;2023-08-21T04:05:23;76800.19;;;-145.17;63.51
32759;BME280;19125;52.360;9.974;2023-08-21T04:07:48;77097.16;;;-145.17;63.34
32759;BME280;19125;52.360;9.974;2023-08-21T04:10:14;77837.72;;;-145.17;63.32
32759;BME280;19125;52.360;9.974;2023-08-21T04:12:41;78437.78;;;-145.17;63.16
32759;BME280;19125;52.360;9.974;2023-08-21T04:15:06;79123.13;;;-145.17;63.11
32759;BME280;19125;52.360;9.974;2023-08-21T04:17:32;79963.09;;;-145.17;62.96
32759;BME280;19125;52.360;9.974;2023-08-21T04:19:57;81138.19;;;-145.17;62.64
32759;BME280;19125;52.360;9.974;2023-08-21T04:22:22;82034.09;;;-145.17;62.61
32759;BME280;19125;52.360;9.974;2023-08-21T04:24:48;82898.50;;;-145.17;62.39
32759;BME280;19125;52.360;9.974;2023-08-21T04:27:13;83810.66;;;-145.17;62.21
32759;BME280;19125;52.360;9.974;2023-08-21T04:29:39;84475.09;;;-145.17;61.93
32759;BME280;19125;52.360;9.974;2023-08-21T04:32:05;84929.34;;;-145.17;61.84
32759;BME280;19125;52.360;9.974;2023-08-21T04:34:34;85207.09;;;-145.17;61.73
32759;BME280;19125;52.360;9.974;2023-08-21T04:37:00;85536.44;;;-145.17;61.37
32759;BME280;19125;52.360;9.974;2023-08-21T04:39:25;85669.38;;;-145.17;61.67
32759;BME280;19125;52.360;9.974;2023-08-21T04:41:51;85681.28;;;-145.17;61.72
32759;BME280;19125;52.360;9.974;2023-08-21T04:44:16;85667.38;;;-145.17;61.90
32759;BME280;19125;52.360;9.974;2023-08-21T04:46:42;85679.28;;;-145.17;61.99
32759;BME280;19125;52.360;9.974;2023-08-21T04:49:07;85661.44;;;-145.17;62.02
32759;BME280;19125;52.360;9.974;2023-08-21T04:51:34;85675.31;;;-145.17;62.12
32759;BME280;19125;52.360;9.974;2023-08-21T04:53:59;85659.44;;;-145.17;61.99
32759;BME280;19125;52.360;9.974;2023-08-21T04:56:25;85671.34;;;-145.17;61.98
32759;BME280;19125;52.360;9.974;2023-08-21T04:58:52;85693.19;;;-145.17;62.00
32759;BME280;19125;52.360;9.974;2023-08-21T05:01:17;85784.44;;;-145.17;61.88
32759;BME280;19125;52.360;9.974;2023-08-21T05:03:42;85830.09;;;-145.17;61.64
32759;BME280;19125;52.360;9.974;2023-08-21T05:06:08;86032.47;;;-145.17;61.28
32759;BME280;19125;52.360;9.974;2023-08-21T05:08:33;86127.72;;;-145.17;60.98
32759;BME280;19125;52.360;9.974;2023-08-21T05:10:59;86234.88;;;-145.17;60.60
32759;BME280;19125;52.360;9.974;2023-08-21T05:13:25;86256.72;;;-145.17;60.37
32759;BME280;19125;52.360;9.974;2023-08-21T05:15:54;86294.41;;;-145.17;59.87
32759;BME280;19125;52.360;9.974;2023-08-21T05:18:20;86272.59;;;-145.17;60.09
32759;BME280;19125;52.360;9.974;2023-08-21T05:20:47;86270.59;;;-145.17;59.56
32759;BME280;19125;52.360;9.974;2023-08-21T05:23:13;86224.97;;;-145.17;59.06
32759;BME280;19125;52.360;9.974;2023-08-21T05:25:38;86222.97;;;-145.17;58.56
32759;BME280;19125;52.360;9.974;2023-08-21T05:28:04;86155.50;;;-145.17;57.99
32759;BME280;19125;52.360;9.974;2023-08-21T05:30:30;86113.84;;;-145.17;57.87
32759;BME280;19125;52.360;9.974;2023-08-21T05:32:55;86092.00;;;-145.17;57.83
32759;BME280;19125;52.360;9.974;2023-08-21T05:35:21;86032.47;;;-145.17;57.81
32759;BME280;19125;52.360;9.974;2023-08-21T05:37:47;86026.53;;;-145.17;57.42
32759;BME280;19125;52.360;9.974;2023-08-21T05:40:12;85949.13;;;-145.17;57.18
32759;BME280;19125;52.360;9.974;2023-08-21T05:42:38;85877.72;;;-145.17;57.16
32759;BME280;19125;52.360;9.974;2023-08-21T05:45:04;85798.34;;;-145.17;56.94
32759;BME280;19125;52.360;9.974;2023-08-21T05:47:30;85814.22;;;-145.17;56.77
32759;BME280;19125;52.360;9.974;2023-08-21T05:49:55;85693.19;;;-145.17;56.50
32759;BME280;19125;52.360;9.974;2023-08-21T05:52:21;85578.09;;;-145.17;56.09
32759;BME280;19125;52.360;9.974;2023-08-21T05:54:48;85560.25;;;-145.17;55.58
32759;BME280;19125;52.360;9.974;2023-08-21T05:57:13;85492.78;;;-145.17;55.45
32759;BME280;19125;52.360;9.974;2023-08-21T05:59:43;85496.75;;;-145.17;55.07
32759;BME280;19125;52.360;9.974;2023-08-21T06:02:09;85425.31;;;-145.17;54.80
32759;BME280;19125;52.360;9.974;2023-08-21T06:04:35;85375.72;;;-145.17;54.46
32759;BME280;19125;52.360;9.974;2023-08-21T06:07:00;85318.19;;;-145.17;54.25
32759;BME280;19125;52.360;9.974;2023-08-21T06:09:25;85280.50;;;-145.17;53.98
32759;BME280;19125;52.360;9.974;2023-08-21T06:11:51;85282.47;;;-145.17;54.05
32759;BME280;19125;52.360;9.974;2023-08-21T06:14:16;85242.81;;;-145.17;53.76
32759;BME280;19125;52.360;9.974;2023-08-21T06:16:42;85207.09;;;-145.17;53.46
32759;BME280;19125;52.360;9.974;2023-08-21T06:19:10;85101.94;;;-145.17;52.63
32759;BME280;19125;52.360;9.974;2023-08-21T06:21:35;85094.00;;;-145.17;52.11
32759;BME280;19125;52.360;9.974;2023-08-21T06:24:01;85076.16;;;-145.17;51.74
32759;BME280;19125;52.360;9.974;2023-08-21T06:26:27;85004.75;;;-145.17;51.35
32759;BME280;19125;52.360;9.974;2023-08-21T06:28:52;84935.31;;;-145.17;50.90
32759;BME280;19125;52.360;9.974;2023-08-21T06:31:18;84891.66;;;-145.17;49.84
32759;BME280;19125;52.360;9.974;2023-08-21T06:33:43;84893.66;;;-145.17;49.76
32759;BME280;19125;52.360;9.974;2023-08-21T06:36:08;84861.91;;;-145.17;49.53
32759;BME280;19125;52.360;9.974;2023-08-21T06:38:34;84877.78;;;-145.17;49.68
32759;BME280;19125;52.360;9.974;2023-08-21T06:40:59;84857.94;;;-145.17;49.41
32759;BME280;19125;52.360;9.974;2023-08-21T06:43:25;84853.97;;;-145.17;49.66
32759;BME280;19125;52.360;9.974;2023-08-21T06:45:50;84909.53;;;-145.17;49.60
32759;BME280;19125;52.360;9.974;2023-08-21T06:48:15;84802.41;;;-145.17;49.61
32759;BME280;19125;52.360;9.974;2023-08-21T06:50:41;84750.81;;;-145.17;48.91
32759;BME280;19125;52.360;9.974;2023-08-21T06:53:06;84732.97;;;-145.17;48.61
32759;BME280;19125;52.360;9.974;2023-08-21T06:55:31;84719.09;;;-145.17;47.91
32759;BME280;19125;52.360;9.974;2023-08-21T06:57:57;84736.94;;;-145.17;47.94
32759;BME280;19125;52.360;9.974;2023-08-21T07:00:22;84723.06;;;-145.17;48.33
32759;BME280;19125;52.360;9.974;2023-08-21T07:02:48;84736.94;;;-145.17;48.28
32759;BME280;19125;52.360;9.974;2023-08-21T07:05:13;84707.19;;;-145.17;47.73
32759;BME280;19125;52.360;9.974;2023-08-21T07:07:39;84695.28;;;-145.17;47.42
32759;BME280;19125;52.360;9.974;2023-08-21T07:10:04;84681.41;;;-145.17;46.84
32759;BME280;19125;52.360;9.974;2023-08-21T07:12:30;84707.19;;;-145.17;46.51
32759;BME280;19125;52.360;9.974;2023-08-21T07:14:55;84719.09;;;-145.17;46.46
32759;BME280;19125;52.360;9.974;2023-08-21T07:17:21;84639.75;;;-145.17;46.57
32759;BME280;19125;52.360;9.974;2023-08-21T07:19:46;84695.28;;;-145.17;46.24
32759;BME280;19125;52.360;9.974;2023-08-21T07:22:14;84695.28;;;-145.17;46.12
32759;BME280;19125;52.360;9.974;2023-08-21T07:24:39;84649.66;;;-145.17;46.07
32759;BME280;19125;52.360;9.974;2023-08-21T07:27:04;84629.81;;;-145.17;45.40
32759;BME280;19125;52.360;9.974;2023-08-21T07:29:30;84631.81;;;-145.17;45.50
32759;BME280;19125;52.360;9.974;2023-08-21T07:31:55;84639.75;;;-145.17;45.19
32759;BME280;19125;52.360;9.974;2023-08-21T07:34:21;84639.75;;;-145.17;45.36
32759;BME280;19125;52.360;9.974;2023-08-21T07:36:46;84655.59;;;-145.17;45.46
32759;BME280;19125;52.360;9.974;2023-08-21T07:39:11;84637.75;;;-145.17;45.58
32759;BME280;19125;52.360;9.974;2023-08-21T07:41:37;84625.84;;;-145.17;45.21
32759;BME280;19125;52.360;9.974;2023-08-21T07:44:02;84671.47;;;-145.17;44.69
32759;BME280;19125;52.360;9.974;2023-08-21T07:46:28;84621.88;;;-145.17;44.81
32759;BME280;19125;52.360;9.974;2023-08-21T07:48:53;84598.09;;;-145.17;44.93
32759;BME280;19125;52.360;9.974;2023-08-21T07:51:19;84586.19;;;-145.17;45.16
32759;BME280;19125;52.360;9.974;2023-08-21T07:53:45;84588.16;;;-145.17;45.03
32759;BME280;19125;52.360;9.974;2023-08-21T07:56:10;84635.78;;;-145.17;45.31
32759;BME280;19125;52.360;9.974;2023-08-21T07:58:36;84613.94;;;-145.17;45.07
32759;BME280;19125;52.360;9.974;2023-08-21T08:01:01;84572.28;;;-145.17;45.20
32759;BME280;19125;52.360;9.974;2023-08-21T08:03:27;84615.94;;;-145.17;44.89
32759;BME280;19125;52.360;9.974;2023-08-21T08:05:52;84600.06;;;-145.17;44.81
32759;BME280;19125;52.360;9.974;2023-08-21T08:08:17;84637.75;;;-145.17;44.92
32759;BME280;19125;52.360;9.974;2023-08-21T08:10:43;84617.91;;;-145.17;44.76
32759;BME280;19125;52.360;9.974;2023-08-21T08:13:09;84576.25;;;-145.17;44.75
32759;BME280;19125;52.360;9.974;2023-08-21T08:15:34;84604.03;;;-145.17;44.45
32759;BME280;19125;52.360;9.974;2023-08-21T08:18:01;84580.22;;;-145.17;44.09
32759;BME280;19125;52.360;9.974;2023-08-21T08:20:27;84556.44;;;-145.17;44.21
32759;BME280;19125;52.360;9.974;2023-08-21T08:22:52;84520.72;;;-145.17;43.89
32759;BME280;19125;52.360;9.974;2023-08-21T08:25:18;84520.72;;;-145.17;43.96
32759;BME280;19125;52.360;9.974;2023-08-21T08:27:44;84465.19;;;-145.17;43.71
32759;BME280;19125;52.360;9.974;2023-08-21T08:30:09;84409.66;;;-145.17;43.09
32759;BME280;19125;52.360;9.974;2023-08-21T08:32:35;84401.72;;;-145.17;42.40
32759;BME280;19125;52.360;9.974;2023-08-21T08:35:01;84368.00;;;-145.17;41.88
32759;BME280;19125;52.360;9.974;2023-08-21T08:37:26;84338.25;;;-145.17;41.46
32759;BME280;19125;52.360;9.974;2023-08-21T08:39:52;84256.91;;;-145.17;40.74
32759;BME280;19125;52.360;9.974;2023-08-21T08:42:17;84284.69;;;-145.17;40.53
32759;BME280;19125;52.360;9.974;2023-08-21T08:44:43;84298.56;;;-145.17;40.47
32759;BME280;19125;52.360;9.974;2023-08-21T08:47:13;84346.19;;;-145.17;39.77
32759;BME280;19125;52.360;9.974;2023-08-21T09:07:26;84276.75;;;-145.17;37.47
32759;BME280;19125;52.360;9.974;2023-08-21T09:09:52;84191.47;;;-145.17;37.39
32759;BME280;19125;52.360;9.974;2023-08-21T09:12:18;84116.09;;;-145.17;36.56
32759;BME280;19125;52.360;9.974;2023-08-21T09:14:45;84100.22;;;-145.17;35.58
32759;BME280;19125;52.360;9.974;2023-08-21T09:17:11;84116.09;;;-145.17;35.40
32759;BME280;19125;52.360;9.974;2023-08-21T09:19:36;84131.97;;;-145.17;35.44
32759;BME280;19125;52.360;9.974;2023-08-21T09:22:15;84116.09;;;-145.17;35.70
32759;BME280;19125;52.360;9.974;2023-08-21T09:25:00;84159.72;;;-145.17;35.98
32759;BME280;19125;52.360;9.974;2023-08-21T09:27:25;84128.00;;;-145.17;35.76
32759;BME280;19125;52.360;9.974;2023-08-21T09:29:50;84080.41;;;-145.17;35.10
32759;BME280;19125;52.360;9.974;2023-08-21T09:32:16;84036.75;;;-145.17;34.06
32759;BME280;19125;52.360;9.974;2023-08-21T09:34:41;84066.50;;;-145.17;33.69
32759;BME280;19125;52.360;9.974;2023-08-21T09:37:07;84064.53;;;-145.17;34.12
32759;BME280;19125;52.360;9.974;2023-08-21T09:39:34;84064.53;;;-145.17;34.68
32759;BME280;19125;52.360;9.974;2023-08-21T09:42:00;84124.03;;;-145.17;35.16
32759;BME280;19125;52.360;9.974;2023-08-21T09:44:27;84100.22;;;-145.17;35.31
32759;BME280;19125;52.360;9.974;2023-08-21T09:46:52;84128.00;;;-145.17;35.50
32759;BME280;19125;52.360;9.974;2023-08-21T09:49:19;84114.13;;;-145.17;35.73
32759;BME280;19125;52.360;9.974;2023-08-21T09:51:45;84114.13;;;-145.17;35.78
32759;BME280;19125;52.360;9.974;2023-08-21T09:54:12;84042.72;;;-145.17;35.50
32759;BME280;19125;52.360;9.974;2023-08-21T09:56:38;84048.66;;;-145.17;35.46
32759;BME280;19125;52.360;9.974;2023-08-21T09:59:04;84001.06;;;-145.17;35.05
32759;BME280;19125;52.360;9.974;2023-08-21T10:01:30;83939.59;;;-145.17;35.08
32759;BME280;19125;52.360;9.974;2023-08-21T10:04:02;83951.47;;;-145.17;34.90
32759;BME280;19125;52.360;9.974;2023-08-21T10:06:28;83989.16;;;-145.17;34.92
32759;BME280;19125;52.360;9.974;2023-08-21T10:08:56;83949.50;;;-145.17;34.56
32759;BME280;19125;52.360;9.974;2023-08-21T10:11:22;83953.47;;;-145.17;34.34
32759;BME280;19125;52.360;9.974;2023-08-21T10:13:48;84016.94;;;-145.17;34.60
32759;BME280;19125;52.360;9.974;2023-08-21T10:16:16;84036.75;;;-145.17;34.81
32759;BME280;19125;52.360;9.974;2023-08-21T10:18:44;84050.66;;;-145.17;34.95
32759;BME280;19125;52.360;9.974;2023-08-21T10:23:37;84010.97;;;-145.17;34.92
32759;BME280;19125;52.360;9.974;2023-08-21T10:26:06;84104.19;;;-145.17;35.14
32759;BME280;19125;52.360;9.974;2023-08-21T10:31:30;84012.97;;;-145.17;34.96
32759;BME280;19125;52.360;9.974;2023-08-21T10:33:57;84076.44;;;-145.17;35.18
32759;BME280;19125;52.360;9.974;2023-08-21T10:42:09;83977.25;;;-145.17;35.14
32759;BME280;19125;52.360;9.974;2023-08-21T10:49:57;83993.13;;;-145.17;35.12
32759;BME280;19125;52.360;9.974;2023-08-21T10:52:31;84014.94;;;-145.17;34.86
32759;BME280;19125;52.360;9.974;2023-08-21T10:54:59;83949.50;;;-145.17;34.90
32759;BME280;19125;52.360;9.974;2023-08-21T10:57:26;83876.13;;;-145.17;34.56
32759;BME280;19125;52.360;9.974;2023-08-21T10:59:56;83901.91;;;-145.17;35.04
32759;BME280;19125;52.360;9.974;2023-08-21T11:02:23;83981.22;;;-145.17;35.26
32759;BME280;19125;52.360;9.974;2023-08-21T11:04:50;83949.50;;;-145.17;34.92
32759;BME280;19125;52.360;9.974;2023-08-21T11:07:16;83848.34;;;-145.17;34.27
32759;BME280;19125;52.360;9.974;2023-08-21T11:09:41;83838.44;;;-145.17;33.62
32759;BME280;19125;52.360;9.974;2023-08-21T11:12:12;83810.66;;;-145.17;34.24
32759;BME280;19125;52.360;9.974;2023-08-21T11:14:38;83840.41;;;-145.17;33.69
32759;BME280;19125;52.360;9.974;2023-08-21T11:17:04;83794.81;;;-145.17;33.89
32759;BME280;19125;52.360;9.974;2023-08-21T11:19:31;83790.84;;;-145.17;33.44
32759;BME280;19125;52.360;9.974;2023-08-21T11:22:00;83808.69;;;-145.17;32.63
32759;BME280;19125;52.360;9.974;2023-08-21T11:24:46;83891.97;;;-145.17;32.85
32759;BME280;19125;52.360;9.974;2023-08-21T11:27:14;83895.94;;;-145.17;33.50
32759;BME280;19125;52.360;9.974;2023-08-21T11:29:42;83919.75;;;-145.17;33.57
32759;BME280;19125;52.360;9.974;2023-08-21T11:32:14;83953.47;;;-145.17;33.41
32759;BME280;19125;52.360;9.974;2023-08-21T11:34:42;83858.28;;;-145.17;33.23
32759;BME280;19125;52.360;9.974;2023-08-21T11:37:09;83852.31;;;-145.17;33.25
32759;BME280;19125;52.360;9.974;2023-08-21T11:42:12;83862.22;;;-145.17;32.48
32759;BME280;19125;52.360;9.974;2023-08-21T11:44:45;83838.44;;;-145.17;32.78
32759;BME280;19125;52.360;9.974;2023-08-21T11:47:11;83888.00;;;-145.17;33.29
32759;BME280;19125;52.360;9.974;2023-08-21T11:49:39;83913.81;;;-145.17;33.00
32759;BME280;19125;52.360;9.974;2023-08-21T11:52:06;83939.59;;;-145.17;32.71
32759;BME280;19125;52.360;9.974;2023-08-21T11:54:33;83874.13;;;-145.17;32.26
32759;BME280;19125;52.360;9.974;2023-08-21T11:56:58;83905.88;;;-145.17;32.43
32759;BME280;19125;52.360;9.974;2023-08-21T11:59:24;83911.81;;;-145.17;32.65
32759;BME280;19125;52.360;9.974;2023-08-21T12:01:50;83842.41;;;-145.17;32.36
32759;BME280;19125;52.360;9.974;2023-08-21T12:04:16;83874.13;;;-145.17;32.50
32759;BME280;19125;52.360;9.974;2023-08-21T12:06:46;83850.34;;;-145.17;32.29
32759;BME280;19125;52.360;9.974;2023-08-21T12:09:11;83933.63;;;-145.17;32.60
32759;BME280;19125;52.360;9.974;2023-08-21T12:11:36;83870.16;;;-145.17;32.49
32759;BME280;19125;52.360;9.974;2023-08-21T12:14:06;83911.81;;;-145.17;32.55
32759;BME280;19125;52.360;9.974;2023-08-21T12:16:32;83901.91;;;-145.17;32.32
32759;BME280;19125;52.360;9.974;2023-08-21T12:18:57;83870.16;;;-145.17;32.45
32759;BME280;19125;52.360;9.974;2023-08-21T12:21:24;83868.19;;;-145.17;32.69
32759;BME280;19125;52.360;9.974;2023-08-21T12:23:50;83860.25;;;-145.17;32.18
32759;BME280;19125;52.360;9.974;2023-08-21T12:26:15;83832.47;;;-145.17;31.96
32759;BME280;19125;52.360;9.974;2023-08-21T12:28:45;83741.25;;;-145.17;32.25
32759;BME280;19125;52.360;9.974;2023-08-21T12:31:11;83737.28;;;-145.17;31.42
32759;BME280;19125;52.360;9.974;2023-08-21T12:33:36;83804.72;;;-145.17;31.75
32759;BME280;19125;52.360;9.974;2023-08-21T12:36:01;83878.09;;;-145.17;31.93
32759;BME280;19125;52.360;9.974;2023-08-21T12:38:28;83890.00;;;-145.17;32.37
32759;BME280;19125;52.360;9.974;2023-08-21T12:40:54;83862.22;;;-145.17;32.47
32759;BME280;19125;52.360;9.974;2023-08-21T12:43:20;83786.88;;;-145.17;31.82
32759;BME280;19125;52.360;9.974;2023-08-21T12:45:45;83743.25;;;-145.17;31.71
32759;BME280;19125;52.360;9.974;2023-08-21T12:48:11;83695.66;;;-145.17;31.48
32759;BME280;19125;52.360;9.974;2023-08-21T12:50:36;83695.66;;;-145.17;31.54
32759;BME280;19125;52.360;9.974;2023-08-21T12:53:02;83636.16;;;-145.17;31.72
32759;BME280;19125;52.360;9.974;2023-08-21T12:55:28;83683.75;;;-145.17;31.70
32759;BME280;19125;52.360;9.974;2023-08-21T12:57:55;83576.66;;;-145.17;31.19
32759;BME280;19125;52.360;9.974;2023-08-21T13:00:20;83652.03;;;-145.17;31.01
32759;BME280;19125;52.360;9.974;2023-08-21T13:02:46;83600.47;;;-145.17;30.92
32759;BME280;19125;52.360;9.974;2023-08-21T13:05:11;83707.53;;;-145.17;30.73
32759;BME280;19125;52.360;9.974;2023-08-21T13:07:37;83703.59;;;-145.17;30.97
32759;BME280;19125;52.360;9.974;2023-08-21T13:10:02;83774.97;;;-145.17;31.34
32759;BME280;19125;52.360;9.974;2023-08-21T13:12:28;83751.19;;;-145.17;31.38